Terminal Aerodrome Forecast
Issued by NWS Melbourne, FL

Home | Current Version | Previous Version | Text Only | Print | Product List | Glossary On
Versions: 1 2 3 4 5 6 7 8 9 10 11 12 13
000
FTUS42 KMLB 230531
TAFVRB
TAF
KVRB 230531Z 2306/2406 16007KT P6SM SCT035 BKN080 OVC110
     FM231400 18010KT P6SM VCSH SCT020 BKN080
     FM240200 33005KT P6SM BKN020=

USA.gov is the U.S. government's official web portal to all federal, state and local government web resources and services.